sensor_id;sensor_type;location;lat;lon;timestamp;P1;durP1;ratioP1;P2;durP2;ratioP2
48859;SDS011;34679;51.436;-2.518;2023-02-15T00:01:45;48.42;;;25.65;;
48859;SDS011;34679;51.436;-2.518;2023-02-15T00:04:15;44.08;;;25.77;;
48859;SDS011;34679;51.436;-2.518;2023-02-15T00:06:42;42.63;;;24.80;;
48859;SDS011;34679;51.436;-2.518;2023-02-15T00:09:08;41.05;;;26.23;;
48859;SDS011;34679;51.436;-2.518;2023-02-15T00:11:35;42.63;;;25.70;;
48859;SDS011;34679;51.436;-2.518;2023-02-15T00:14:22;43.58;;;26.15;;
48859;SDS011;34679;51.436;-2.518;2023-02-15T00:16:49;43.95;;;25.23;;
48859;SDS011;34679;51.436;-2.518;2023-02-15T00:19:18;41.63;;;26.02;;
48859;SDS011;34679;51.436;-2.518;2023-02-15T00:21:45;40.95;;;25.67;;
48859;SDS011;34679;51.436;-2.518;2023-02-15T00:24:11;42.38;;;25.58;;
48859;SDS011;34679;51.436;-2.518;2023-02-15T00:26:39;48.83;;;26.52;;
48859;SDS011;34679;51.436;-2.518;2023-02-15T00:29:05;44.33;;;27.98;;
48859;SDS011;34679;51.436;-2.518;2023-02-15T00:31:32;49.72;;;27.20;;
48859;SDS011;34679;51.436;-2.518;2023-02-15T00:36:47;46.53;;;24.45;;
48859;SDS011;34679;51.436;-2.518;2023-02-15T00:39:13;46.22;;;26.63;;
48859;SDS011;34679;51.436;-2.518;2023-02-15T00:41:40;50.70;;;27.73;;
48859;SDS011;34679;51.436;-2.518;2023-02-15T00:44:06;44.13;;;27.27;;
48859;SDS011;34679;51.436;-2.518;2023-02-15T00:46:32;50.42;;;27.95;;
48859;SDS011;34679;51.436;-2.518;2023-02-15T00:48:58;48.28;;;27.42;;
48859;SDS011;34679;51.436;-2.518;2023-02-15T00:51:24;47.70;;;27.85;;
48859;SDS011;34679;51.436;-2.518;2023-02-15T00:53:50;50.65;;;27.15;;
48859;SDS011;34679;51.436;-2.518;2023-02-15T00:56:15;46.63;;;28.70;;
48859;SDS011;34679;51.436;-2.518;2023-02-15T00:58:41;47.33;;;28.33;;
48859;SDS011;34679;51.436;-2.518;2023-02-15T01:01:09;46.88;;;29.33;;
48859;SDS011;34679;51.436;-2.518;2023-02-15T01:03:37;53.10;;;31.08;;
48859;SDS011;34679;51.436;-2.518;2023-02-15T01:06:03;47.92;;;29.55;;
48859;SDS011;34679;51.436;-2.518;2023-02-15T01:08:29;48.75;;;28.02;;
48859;SDS011;34679;51.436;-2.518;2023-02-15T01:10:56;55.08;;;31.88;;
48859;SDS011;34679;51.436;-2.518;2023-02-15T01:13:22;54.83;;;31.73;;
48859;SDS011;34679;51.436;-2.518;2023-02-15T01:15:54;56.08;;;31.42;;
48859;SDS011;34679;51.436;-2.518;2023-02-15T01:18:20;61.45;;;31.73;;
48859;SDS011;34679;51.436;-2.518;2023-02-15T01:20:46;52.55;;;31.35;;
48859;SDS011;34679;51.436;-2.518;2023-02-15T01:23:12;55.17;;;29.20;;
48859;SDS011;34679;51.436;-2.518;2023-02-15T01:25:38;51.63;;;31.33;;
48859;SDS011;34679;51.436;-2.518;2023-02-15T01:28:04;51.80;;;31.65;;
48859;SDS011;34679;51.436;-2.518;2023-02-15T01:30:30;53.40;;;31.50;;
48859;SDS011;34679;51.436;-2.518;2023-02-15T01:32:57;51.47;;;29.10;;
48859;SDS011;34679;51.436;-2.518;2023-02-15T01:35:23;56.72;;;31.23;;
48859;SDS011;34679;51.436;-2.518;2023-02-15T01:37:48;51.22;;;31.65;;
48859;SDS011;34679;51.436;-2.518;2023-02-15T01:40:15;55.03;;;32.50;;
48859;SDS011;34679;51.436;-2.518;2023-02-15T01:42:42;52.38;;;32.35;;
48859;SDS011;34679;51.436;-2.518;2023-02-15T01:50:56;51.90;;;31.30;;
48859;SDS011;34679;51.436;-2.518;2023-02-15T01:53:32;58.03;;;32.80;;
48859;SDS011;34679;51.436;-2.518;2023-02-15T01:56:05;64.80;;;34.85;;
48859;SDS011;34679;51.436;-2.518;2023-02-15T01:58:36;58.58;;;33.05;;
48859;SDS011;34679;51.436;-2.518;2023-02-15T02:01:02;56.42;;;33.00;;
48859;SDS011;34679;51.436;-2.518;2023-02-15T02:06:40;61.03;;;35.05;;
48859;SDS011;34679;51.436;-2.518;2023-02-15T02:09:06;68.93;;;34.55;;
48859;SDS011;34679;51.436;-2.518;2023-02-15T02:11:33;62.45;;;37.35;;
48859;SDS011;34679;51.436;-2.518;2023-02-15T02:13:59;60.88;;;37.50;;
48859;SDS011;34679;51.436;-2.518;2023-02-15T02:16:28;61.88;;;35.65;;
48859;SDS011;34679;51.436;-2.518;2023-02-15T02:26:56;69.43;;;37.83;;
48859;SDS011;34679;51.436;-2.518;2023-02-15T02:35:31;60.70;;;34.67;;
48859;SDS011;34679;51.436;-2.518;2023-02-15T02:43:38;66.95;;;36.00;;
48859;SDS011;34679;51.436;-2.518;2023-02-15T02:48:38;61.53;;;35.35;;
48859;SDS011;34679;51.436;-2.518;2023-02-15T02:51:04;69.55;;;37.95;;
48859;SDS011;34679;51.436;-2.518;2023-02-15T02:53:30;73.25;;;40.25;;
48859;SDS011;34679;51.436;-2.518;2023-02-15T02:55:59;69.28;;;41.33;;
48859;SDS011;34679;51.436;-2.518;2023-02-15T02:58:36;64.05;;;36.63;;
48859;SDS011;34679;51.436;-2.518;2023-02-15T03:03:36;74.55;;;38.10;;
48859;SDS011;34679;51.436;-2.518;2023-02-15T03:06:06;67.40;;;40.00;;
48859;SDS011;34679;51.436;-2.518;2023-02-15T03:08:38;72.18;;;38.95;;
48859;SDS011;34679;51.436;-2.518;2023-02-15T03:11:08;66.60;;;39.28;;
48859;SDS011;34679;51.436;-2.518;2023-02-15T03:13:34;74.25;;;39.78;;
48859;SDS011;34679;51.436;-2.518;2023-02-15T03:16:00;77.40;;;39.60;;
48859;SDS011;34679;51.436;-2.518;2023-02-15T03:18:48;71.45;;;40.92;;
48859;SDS011;34679;51.436;-2.518;2023-02-15T03:21:25;71.57;;;41.00;;
48859;SDS011;34679;51.436;-2.518;2023-02-15T03:24:06;74.03;;;42.15;;
48859;SDS011;34679;51.436;-2.518;2023-02-15T03:26:39;78.05;;;42.75;;
48859;SDS011;34679;51.436;-2.518;2023-02-15T03:29:08;75.47;;;42.72;;
48859;SDS011;34679;51.436;-2.518;2023-02-15T03:31:37;79.00;;;42.72;;
48859;SDS011;34679;51.436;-2.518;2023-02-15T03:34:07;83.30;;;43.92;;
48859;SDS011;34679;51.436;-2.518;2023-02-15T03:36:41;80.72;;;44.65;;
48859;SDS011;34679;51.436;-2.518;2023-02-15T03:39:42;87.03;;;44.15;;
48859;SDS011;34679;51.436;-2.518;2023-02-15T03:42:17;99.30;;;47.38;;
48859;SDS011;34679;51.436;-2.518;2023-02-15T03:47:34;90.82;;;47.40;;
48859;SDS011;34679;51.436;-2.518;2023-02-15T03:52:57;96.95;;;47.50;;
48859;SDS011;34679;51.436;-2.518;2023-02-15T03:55:25;87.68;;;47.97;;
48859;SDS011;34679;51.436;-2.518;2023-02-15T03:57:51;86.30;;;48.35;;
48859;SDS011;34679;51.436;-2.518;2023-02-15T04:00:38;92.22;;;47.83;;
48859;SDS011;34679;51.436;-2.518;2023-02-15T04:03:33;100.35;;;48.08;;
48859;SDS011;34679;51.436;-2.518;2023-02-15T04:06:05;94.70;;;48.55;;
48859;SDS011;34679;51.436;-2.518;2023-02-15T04:08:31;103.40;;;51.92;;
48859;SDS011;34679;51.436;-2.518;2023-02-15T04:11:15;101.97;;;51.08;;
48859;SDS011;34679;51.436;-2.518;2023-02-15T04:13:41;98.70;;;51.40;;
48859;SDS011;34679;51.436;-2.518;2023-02-15T04:16:07;91.72;;;50.22;;
48859;SDS011;34679;51.436;-2.518;2023-02-15T04:18:37;96.13;;;49.72;;
48859;SDS011;34679;51.436;-2.518;2023-02-15T04:21:26;103.88;;;49.35;;
48859;SDS011;34679;51.436;-2.518;2023-02-15T04:24:12;95.63;;;49.33;;
48859;SDS011;34679;51.436;-2.518;2023-02-15T04:26:57;96.10;;;50.78;;
48859;SDS011;34679;51.436;-2.518;2023-02-15T04:29:25;107.78;;;51.60;;
48859;SDS011;34679;51.436;-2.518;2023-02-15T04:31:52;104.13;;;52.35;;
48859;SDS011;34679;51.436;-2.518;2023-02-15T04:34:19;104.03;;;53.00;;
48859;SDS011;34679;51.436;-2.518;2023-02-15T04:36:45;100.38;;;53.63;;
48859;SDS011;34679;51.436;-2.518;2023-02-15T04:39:14;108.32;;;53.83;;
48859;SDS011;34679;51.436;-2.518;2023-02-15T04:41:41;106.45;;;52.20;;
48859;SDS011;34679;51.436;-2.518;2023-02-15T04:44:07;111.38;;;52.97;;
48859;SDS011;34679;51.436;-2.518;2023-02-15T04:46:33;108.00;;;51.63;;
48859;SDS011;34679;51.436;-2.518;2023-02-15T04:48:59;102.60;;;53.55;;
48859;SDS011;34679;51.436;-2.518;2023-02-15T04:51:24;97.13;;;51.70;;
48859;SDS011;34679;51.436;-2.518;2023-02-15T04:53:50;98.28;;;52.75;;
48859;SDS011;34679;51.436;-2.518;2023-02-15T04:56:21;100.07;;;50.50;;
48859;SDS011;34679;51.436;-2.518;2023-02-15T04:58:47;101.15;;;51.85;;
48859;SDS011;34679;51.436;-2.518;2023-02-15T05:01:13;91.47;;;48.72;;
48859;SDS011;34679;51.436;-2.518;2023-02-15T05:03:39;95.40;;;47.22;;
48859;SDS011;34679;51.436;-2.518;2023-02-15T05:06:04;96.25;;;50.80;;
48859;SDS011;34679;51.436;-2.518;2023-02-15T05:08:30;100.40;;;51.53;;
48859;SDS011;34679;51.436;-2.518;2023-02-15T05:10:56;100.65;;;52.30;;
48859;SDS011;34679;51.436;-2.518;2023-02-15T05:13:23;101.95;;;51.78;;
48859;SDS011;34679;51.436;-2.518;2023-02-15T05:15:52;103.35;;;51.78;;
48859;SDS011;34679;51.436;-2.518;2023-02-15T05:18:18;96.30;;;51.10;;
48859;SDS011;34679;51.436;-2.518;2023-02-15T05:20:45;97.20;;;50.00;;
48859;SDS011;34679;51.436;-2.518;2023-02-15T05:23:11;94.82;;;50.30;;
48859;SDS011;34679;51.436;-2.518;2023-02-15T05:25:37;95.22;;;51.22;;
48859;SDS011;34679;51.436;-2.518;2023-02-15T05:28:23;95.40;;;49.33;;
48859;SDS011;34679;51.436;-2.518;2023-02-15T05:30:51;103.85;;;50.88;;
48859;SDS011;34679;51.436;-2.518;2023-02-15T05:33:31;99.03;;;50.25;;
48859;SDS011;34679;51.436;-2.518;2023-02-15T05:35:57;99.85;;;53.08;;
48859;SDS011;34679;51.436;-2.518;2023-02-15T05:38:23;99.82;;;52.00;;
48859;SDS011;34679;51.436;-2.518;2023-02-15T05:40:50;95.93;;;49.05;;
48859;SDS011;34679;51.436;-2.518;2023-02-15T05:43:16;99.68;;;51.00;;
48859;SDS011;34679;51.436;-2.518;2023-02-15T05:45:45;96.32;;;48.65;;
48859;SDS011;34679;51.436;-2.518;2023-02-15T05:48:15;100.07;;;51.38;;
48859;SDS011;34679;51.436;-2.518;2023-02-15T05:50:42;97.47;;;49.63;;
48859;SDS011;34679;51.436;-2.518;2023-02-15T05:53:07;99.43;;;50.72;;
48859;SDS011;34679;51.436;-2.518;2023-02-15T05:55:33;96.72;;;47.67;;
48859;SDS011;34679;51.436;-2.518;2023-02-15T05:57:59;102.03;;;51.53;;
48859;SDS011;34679;51.436;-2.518;2023-02-15T06:00:25;97.13;;;50.10;;
48859;SDS011;34679;51.436;-2.518;2023-02-15T06:02:50;90.15;;;46.50;;
48859;SDS011;34679;51.436;-2.518;2023-02-15T06:05:16;92.88;;;46.17;;
48859;SDS011;34679;51.436;-2.518;2023-02-15T06:07:42;97.68;;;45.67;;
48859;SDS011;34679;51.436;-2.518;2023-02-15T06:10:09;86.30;;;48.38;;
48859;SDS011;34679;51.436;-2.518;2023-02-15T06:12:35;86.43;;;45.05;;
48859;SDS011;34679;51.436;-2.518;2023-02-15T06:15:01;103.20;;;47.65;;
48859;SDS011;34679;51.436;-2.518;2023-02-15T06:17:28;97.75;;;46.53;;
48859;SDS011;34679;51.436;-2.518;2023-02-15T06:19:53;102.75;;;52.95;;
48859;SDS011;34679;51.436;-2.518;2023-02-15T06:22:19;90.72;;;47.78;;
48859;SDS011;34679;51.436;-2.518;2023-02-15T06:24:45;91.35;;;47.20;;
48859;SDS011;34679;51.436;-2.518;2023-02-15T06:27:11;96.43;;;49.10;;
48859;SDS011;34679;51.436;-2.518;2023-02-15T06:29:37;94.35;;;49.78;;
48859;SDS011;34679;51.436;-2.518;2023-02-15T06:32:03;101.40;;;49.55;;
48859;SDS011;34679;51.436;-2.518;2023-02-15T06:34:29;88.32;;;48.75;;
48859;SDS011;34679;51.436;-2.518;2023-02-15T06:36:55;96.95;;;52.10;;
48859;SDS011;34679;51.436;-2.518;2023-02-15T06:39:20;104.68;;;50.72;;
48859;SDS011;34679;51.436;-2.518;2023-02-15T06:41:46;93.70;;;50.08;;
48859;SDS011;34679;51.436;-2.518;2023-02-15T06:44:12;92.55;;;46.42;;
48859;SDS011;34679;51.436;-2.518;2023-02-15T06:46:37;89.43;;;48.58;;
48859;SDS011;34679;51.436;-2.518;2023-02-15T06:49:03;95.90;;;47.72;;
48859;SDS011;34679;51.436;-2.518;2023-02-15T06:51:29;96.20;;;47.13;;
48859;SDS011;34679;51.436;-2.518;2023-02-15T06:53:54;93.35;;;47.88;;
48859;SDS011;34679;51.436;-2.518;2023-02-15T06:56:20;93.40;;;46.67;;
48859;SDS011;34679;51.436;-2.518;2023-02-15T06:58:46;91.70;;;47.03;;
48859;SDS011;34679;51.436;-2.518;2023-02-15T07:01:14;94.88;;;46.30;;
48859;SDS011;34679;51.436;-2.518;2023-02-15T07:03:40;86.28;;;46.63;;
48859;SDS011;34679;51.436;-2.518;2023-02-15T07:06:05;86.65;;;46.80;;
48859;SDS011;34679;51.436;-2.518;2023-02-15T07:08:33;91.40;;;46.38;;
48859;SDS011;34679;51.436;-2.518;2023-02-15T07:11:03;89.63;;;46.33;;
48859;SDS011;34679;51.436;-2.518;2023-02-15T07:13:48;86.93;;;41.50;;
48859;SDS011;34679;51.436;-2.518;2023-02-15T07:16:14;82.57;;;45.20;;
48859;SDS011;34679;51.436;-2.518;2023-02-15T07:18:39;83.95;;;44.67;;
48859;SDS011;34679;51.436;-2.518;2023-02-15T07:21:05;90.05;;;46.47;;
48859;SDS011;34679;51.436;-2.518;2023-02-15T07:23:37;85.15;;;45.78;;
48859;SDS011;34679;51.436;-2.518;2023-02-15T07:26:04;90.90;;;46.97;;
48859;SDS011;34679;51.436;-2.518;2023-02-15T07:28:32;74.07;;;41.25;;
48859;SDS011;34679;51.436;-2.518;2023-02-15T07:31:00;81.85;;;44.53;;
48859;SDS011;34679;51.436;-2.518;2023-02-15T07:33:33;79.25;;;41.40;;
48859;SDS011;34679;51.436;-2.518;2023-02-15T07:36:01;84.03;;;43.67;;
48859;SDS011;34679;51.436;-2.518;2023-02-15T07:38:30;84.63;;;44.30;;
48859;SDS011;34679;51.436;-2.518;2023-02-15T07:41:00;85.63;;;46.47;;
48859;SDS011;34679;51.436;-2.518;2023-02-15T07:43:28;83.57;;;44.03;;
48859;SDS011;34679;51.436;-2.518;2023-02-15T07:45:54;88.15;;;43.40;;
48859;SDS011;34679;51.436;-2.518;2023-02-15T07:48:24;80.57;;;42.50;;
48859;SDS011;34679;51.436;-2.518;2023-02-15T07:50:49;84.80;;;45.20;;
48859;SDS011;34679;51.436;-2.518;2023-02-15T07:53:15;83.78;;;43.83;;
48859;SDS011;34679;51.436;-2.518;2023-02-15T07:55:41;84.00;;;42.75;;
48859;SDS011;34679;51.436;-2.518;2023-02-15T07:58:06;78.05;;;40.58;;
48859;SDS011;34679;51.436;-2.518;2023-02-15T08:00:32;77.95;;;40.55;;
48859;SDS011;34679;51.436;-2.518;2023-02-15T08:03:18;70.63;;;35.90;;
48859;SDS011;34679;51.436;-2.518;2023-02-15T08:05:44;80.00;;;39.67;;
48859;SDS011;34679;51.436;-2.518;2023-02-15T08:08:10;71.55;;;39.58;;
48859;SDS011;34679;51.436;-2.518;2023-02-15T08:13:43;66.43;;;36.40;;
48859;SDS011;34679;51.436;-2.518;2023-02-15T08:16:27;62.58;;;36.10;;
48859;SDS011;34679;51.436;-2.518;2023-02-15T08:18:56;64.68;;;34.20;;
48859;SDS011;34679;51.436;-2.518;2023-02-15T08:21:24;48.00;;;30.38;;
48859;SDS011;34679;51.436;-2.518;2023-02-15T08:23:52;54.13;;;29.75;;
48859;SDS011;34679;51.436;-2.518;2023-02-15T08:26:18;44.55;;;28.00;;
48859;SDS011;34679;51.436;-2.518;2023-02-15T08:28:44;36.70;;;25.63;;
48859;SDS011;34679;51.436;-2.518;2023-02-15T08:31:12;36.38;;;25.02;;
48859;SDS011;34679;51.436;-2.518;2023-02-15T08:33:38;39.95;;;24.17;;
48859;SDS011;34679;51.436;-2.518;2023-02-15T08:36:06;39.88;;;23.52;;
48859;SDS011;34679;51.436;-2.518;2023-02-15T08:38:33;43.08;;;23.95;;
48859;SDS011;34679;51.436;-2.518;2023-02-15T08:41:09;38.38;;;23.75;;
48859;SDS011;34679;51.436;-2.518;2023-02-15T08:43:36;33.45;;;21.90;;
48859;SDS011;34679;51.436;-2.518;2023-02-15T08:46:03;32.08;;;21.35;;
48859;SDS011;34679;51.436;-2.518;2023-02-15T08:48:28;41.90;;;22.27;;
48859;SDS011;34679;51.436;-2.518;2023-02-15T08:50:54;32.90;;;20.20;;
48859;SDS011;34679;51.436;-2.518;2023-02-15T08:53:20;31.30;;;20.83;;
48859;SDS011;34679;51.436;-2.518;2023-02-15T08:55:46;29.35;;;20.00;;
48859;SDS011;34679;51.436;-2.518;2023-02-15T09:00:45;34.05;;;21.05;;
48859;SDS011;34679;51.436;-2.518;2023-02-15T09:03:11;36.47;;;21.38;;
48859;SDS011;34679;51.436;-2.518;2023-02-15T09:05:36;36.70;;;19.25;;
48859;SDS011;34679;51.436;-2.518;2023-02-15T09:08:02;31.25;;;19.60;;
48859;SDS011;34679;51.436;-2.518;2023-02-15T09:10:27;32.85;;;18.92;;
48859;SDS011;34679;51.436;-2.518;2023-02-15T09:12:53;29.25;;;17.65;;
48859;SDS011;34679;51.436;-2.518;2023-02-15T09:15:19;32.47;;;19.58;;
48859;SDS011;34679;51.436;-2.518;2023-02-15T09:17:44;32.17;;;20.90;;
48859;SDS011;34679;51.436;-2.518;2023-02-15T09:20:10;33.92;;;19.98;;
48859;SDS011;34679;51.436;-2.518;2023-02-15T09:22:36;29.92;;;17.65;;
48859;SDS011;34679;51.436;-2.518;2023-02-15T09:25:02;33.55;;;16.20;;
48859;SDS011;34679;51.436;-2.518;2023-02-15T09:27:27;28.40;;;15.05;;
48859;SDS011;34679;51.436;-2.518;2023-02-15T09:29:54;22.98;;;14.25;;
48859;SDS011;34679;51.436;-2.518;2023-02-15T09:32:19;23.50;;;14.85;;
48859;SDS011;34679;51.436;-2.518;2023-02-15T09:34:47;22.52;;;15.27;;
48859;SDS011;34679;51.436;-2.518;2023-02-15T09:37:13;24.90;;;14.30;;
48859;SDS011;34679;51.436;-2.518;2023-02-15T09:39:39;21.42;;;14.32;;
48859;SDS011;34679;51.436;-2.518;2023-02-15T09:56:15;21.20;;;12.23;;
48859;SDS011;34679;51.436;-2.518;2023-02-15T09:59:25;21.08;;;12.60;;
48859;SDS011;34679;51.436;-2.518;2023-02-15T10:02:51;20.35;;;12.32;;
48859;SDS011;34679;51.436;-2.518;2023-02-15T10:05:17;23.48;;;13.00;;
48859;SDS011;34679;51.436;-2.518;2023-02-15T10:11:02;27.58;;;12.30;;
48859;SDS011;34679;51.436;-2.518;2023-02-15T10:14:11;22.67;;;11.50;;
48859;SDS011;34679;51.436;-2.518;2023-02-15T10:19:35;21.75;;;10.50;;
48859;SDS011;34679;51.436;-2.518;2023-02-15T10:27:45;20.75;;;10.57;;
48859;SDS011;34679;51.436;-2.518;2023-02-15T10:30:31;21.80;;;10.75;;
48859;SDS011;34679;51.436;-2.518;2023-02-15T10:36:11;22.70;;;10.95;;
48859;SDS011;34679;51.436;-2.518;2023-02-15T10:55:13;23.77;;;10.55;;
48859;SDS011;34679;51.436;-2.518;2023-02-15T11:08:29;18.33;;;10.30;;
48859;SDS011;34679;51.436;-2.518;2023-02-15T11:11:04;27.15;;;9.98;;
48859;SDS011;34679;51.436;-2.518;2023-02-15T11:13:35;23.52;;;10.13;;
48859;SDS011;34679;51.436;-2.518;2023-02-15T11:16:15;27.00;;;9.35;;
48859;SDS011;34679;51.436;-2.518;2023-02-15T11:18:45;27.38;;;10.35;;
48859;SDS011;34679;51.436;-2.518;2023-02-15T11:21:31;22.25;;;11.00;;
48859;SDS011;34679;51.436;-2.518;2023-02-15T11:24:07;21.05;;;9.90;;
48859;SDS011;34679;51.436;-2.518;2023-02-15T11:29:22;24.45;;;9.27;;
48859;SDS011;34679;51.436;-2.518;2023-02-15T11:37:37;30.92;;;11.27;;
48859;SDS011;34679;51.436;-2.518;2023-02-15T11:40:22;18.52;;;11.02;;
48859;SDS011;34679;51.436;-2.518;2023-02-15T11:43:20;26.30;;;11.65;;
48859;SDS011;34679;51.436;-2.518;2023-02-15T11:45:49;22.25;;;9.60;;
48859;SDS011;34679;51.436;-2.518;2023-02-15T11:48:15;18.00;;;10.68;;
48859;SDS011;34679;51.436;-2.518;2023-02-15T11:50:43;24.02;;;10.02;;
48859;SDS011;34679;51.436;-2.518;2023-02-15T11:53:11;26.17;;;9.93;;
48859;SDS011;34679;51.436;-2.518;2023-02-15T11:55:40;30.05;;;11.23;;
48859;SDS011;34679;51.436;-2.518;2023-02-15T11:58:13;22.58;;;10.35;;
48859;SDS011;34679;51.436;-2.518;2023-02-15T12:06:11;24.52;;;8.98;;
48859;SDS011;34679;51.436;-2.518;2023-02-15T12:11:37;23.50;;;10.25;;
48859;SDS011;34679;51.436;-2.518;2023-02-15T12:14:05;23.15;;;10.02;;
48859;SDS011;34679;51.436;-2.518;2023-02-15T12:16:44;22.02;;;10.57;;
48859;SDS011;34679;51.436;-2.518;2023-02-15T12:21:51;21.05;;;9.48;;
48859;SDS011;34679;51.436;-2.518;2023-02-15T12:24:19;19.60;;;9.27;;
48859;SDS011;34679;51.436;-2.518;2023-02-15T12:29:52;25.70;;;9.15;;
48859;SDS011;34679;51.436;-2.518;2023-02-15T12:32:26;20.13;;;8.32;;
48859;SDS011;34679;51.436;-2.518;2023-02-15T12:34:55;33.03;;;9.30;;
48859;SDS011;34679;51.436;-2.518;2023-02-15T12:37:27;20.45;;;9.48;;
48859;SDS011;34679;51.436;-2.518;2023-02-15T12:40:00;24.77;;;8.05;;
48859;SDS011;34679;51.436;-2.518;2023-02-15T12:42:43;15.80;;;7.97;;
48859;SDS011;34679;51.436;-2.518;2023-02-15T12:50:47;16.13;;;7.35;;
48859;SDS011;34679;51.436;-2.518;2023-02-15T12:53:37;22.85;;;8.95;;
48859;SDS011;34679;51.436;-2.518;2023-02-15T12:56:03;16.08;;;8.23;;
48859;SDS011;34679;51.436;-2.518;2023-02-15T12:58:38;17.70;;;7.63;;
48859;SDS011;34679;51.436;-2.518;2023-02-15T13:01:12;16.65;;;7.13;;
48859;SDS011;34679;51.436;-2.518;2023-02-15T13:06:38;21.77;;;7.82;;
48859;SDS011;34679;51.436;-2.518;2023-02-15T13:12:08;20.83;;;9.57;;
48859;SDS011;34679;51.436;-2.518;2023-02-15T13:14:55;19.00;;;7.57;;
48859;SDS011;34679;51.436;-2.518;2023-02-15T13:17:25;13.38;;;6.68;;
48859;SDS011;34679;51.436;-2.518;2023-02-15T13:20:32;20.20;;;7.15;;
48859;SDS011;34679;51.436;-2.518;2023-02-15T13:23:00;19.58;;;7.00;;
48859;SDS011;34679;51.436;-2.518;2023-02-15T13:25:31;26.95;;;8.80;;
48859;SDS011;34679;51.436;-2.518;2023-02-15T13:28:04;18.65;;;7.20;;
48859;SDS011;34679;51.436;-2.518;2023-02-15T13:30:38;16.90;;;7.80;;
48859;SDS011;34679;51.436;-2.518;2023-02-15T13:33:50;19.77;;;7.75;;
48859;SDS011;34679;51.436;-2.518;2023-02-15T13:38:57;15.45;;;7.70;;
48859;SDS011;34679;51.436;-2.518;2023-02-15T13:44:26;21.40;;;8.70;;
48859;SDS011;34679;51.436;-2.518;2023-02-15T13:46:58;19.75;;;8.77;;
48859;SDS011;34679;51.436;-2.518;2023-02-15T14:01:21;22.20;;;11.60;;
48859;SDS011;34679;51.436;-2.518;2023-02-15T14:15:39;27.85;;;10.50;;
48859;SDS011;34679;51.436;-2.518;2023-02-15T14:26:16;22.70;;;11.23;;
48859;SDS011;34679;51.436;-2.518;2023-02-15T14:28:54;31.17;;;11.75;;
48859;SDS011;34679;51.436;-2.518;2023-02-15T14:31:45;31.27;;;13.63;;
48859;SDS011;34679;51.436;-2.518;2023-02-15T14:36:49;22.48;;;10.27;;
48859;SDS011;34679;51.436;-2.518;2023-02-15T14:42:35;20.85;;;9.57;;
48859;SDS011;34679;51.436;-2.518;2023-02-15T14:48:36;19.10;;;10.80;;
48859;SDS011;34679;51.436;-2.518;2023-02-15T14:58:39;31.55;;;12.45;;
48859;SDS011;34679;51.436;-2.518;2023-02-15T15:01:28;23.33;;;12.25;;
48859;SDS011;34679;51.436;-2.518;2023-02-15T15:03:58;10.57;;;4.30;;
48859;SDS011;34679;51.436;-2.518;2023-02-15T15:06:30;6.60;;;3.10;;
48859;SDS011;34679;51.436;-2.518;2023-02-15T15:09:08;4.65;;;2.22;;
48859;SDS011;34679;51.436;-2.518;2023-02-15T15:14:35;6.40;;;1.60;;
48859;SDS011;34679;51.436;-2.518;2023-02-15T15:16:56;6.13;;;1.50;;
48859;SDS011;34679;51.436;-2.518;2023-02-15T15:22:20;2.30;;;1.10;;
48859;SDS011;34679;51.436;-2.518;2023-02-15T15:24:49;1.80;;;1.05;;
48859;SDS011;34679;51.436;-2.518;2023-02-15T15:38:56;2.53;;;0.90;;
48859;SDS011;34679;51.436;-2.518;2023-02-15T15:49:44;0.85;;;0.70;;
48859;SDS011;34679;51.436;-2.518;2023-02-15T15:52:14;2.65;;;0.50;;
48859;SDS011;34679;51.436;-2.518;2023-02-15T15:54:46;1.55;;;0.50;;
48859;SDS011;34679;51.436;-2.518;2023-02-15T15:57:16;0.60;;;0.50;;
48859;SDS011;34679;51.436;-2.518;2023-02-15T15:59:51;6.78;;;0.70;;
48859;SDS011;34679;51.436;-2.518;2023-02-15T16:02:17;4.85;;;0.60;;
48859;SDS011;34679;51.436;-2.518;2023-02-15T16:04:43;2.88;;;0.82;;
48859;SDS011;34679;51.436;-2.518;2023-02-15T16:07:27;3.72;;;1.63;;
48859;SDS011;34679;51.436;-2.518;2023-02-15T16:09:57;5.57;;;1.30;;
48859;SDS011;34679;51.436;-2.518;2023-02-15T16:12:29;2.95;;;1.13;;
48859;SDS011;34679;51.436;-2.518;2023-02-15T16:14:57;2.72;;;1.77;;
48859;SDS011;34679;51.436;-2.518;2023-02-15T16:17:38;6.07;;;1.60;;
48859;SDS011;34679;51.436;-2.518;2023-02-15T16:20:17;2.53;;;2.22;;
48859;SDS011;34679;51.436;-2.518;2023-02-15T16:22:51;5.35;;;2.10;;
48859;SDS011;34679;51.436;-2.518;2023-02-15T16:28:08;5.47;;;2.78;;
48859;SDS011;34679;51.436;-2.518;2023-02-15T16:30:37;3.27;;;2.93;;
48859;SDS011;34679;51.436;-2.518;2023-02-15T16:33:11;5.07;;;2.33;;
48859;SDS011;34679;51.436;-2.518;2023-02-15T16:35:55;4.35;;;2.65;;
48859;SDS011;34679;51.436;-2.518;2023-02-15T16:41:06;4.57;;;3.08;;
48859;SDS011;34679;51.436;-2.518;2023-02-15T16:43:36;6.88;;;2.95;;
48859;SDS011;34679;51.436;-2.518;2023-02-15T16:46:04;6.45;;;3.42;;
48859;SDS011;34679;51.436;-2.518;2023-02-15T16:48:51;8.27;;;3.40;;
48859;SDS011;34679;51.436;-2.518;2023-02-15T16:51:23;4.68;;;2.80;;
48859;SDS011;34679;51.436;-2.518;2023-02-15T16:53:51;5.88;;;2.65;;
48859;SDS011;34679;51.436;-2.518;2023-02-15T16:56:25;6.18;;;2.80;;
48859;SDS011;34679;51.436;-2.518;2023-02-15T16:58:53;4.75;;;2.70;;
48859;SDS011;34679;51.436;-2.518;2023-02-15T17:01:20;8.75;;;3.15;;
48859;SDS011;34679;51.436;-2.518;2023-02-15T17:03:50;7.32;;;2.90;;
48859;SDS011;34679;51.436;-2.518;2023-02-15T17:06:34;6.05;;;3.22;;
48859;SDS011;34679;51.436;-2.518;2023-02-15T17:09:13;7.68;;;3.20;;
48859;SDS011;34679;51.436;-2.518;2023-02-15T17:11:43;4.50;;;2.53;;
48859;SDS011;34679;51.436;-2.518;2023-02-15T17:16:47;8.73;;;2.88;;
48859;SDS011;34679;51.436;-2.518;2023-02-15T17:21:49;8.77;;;2.92;;
48859;SDS011;34679;51.436;-2.518;2023-02-15T17:24:39;9.20;;;2.83;;
48859;SDS011;34679;51.436;-2.518;2023-02-15T17:27:14;6.40;;;2.63;;
48859;SDS011;34679;51.436;-2.518;2023-02-15T17:29:44;5.32;;;2.28;;
48859;SDS011;34679;51.436;-2.518;2023-02-15T17:32:17;5.80;;;2.63;;
48859;SDS011;34679;51.436;-2.518;2023-02-15T17:37:49;5.40;;;1.65;;
48859;SDS011;34679;51.436;-2.518;2023-02-15T17:40:25;4.57;;;1.75;;
48859;SDS011;34679;51.436;-2.518;2023-02-15T17:42:52;5.63;;;1.92;;
48859;SDS011;34679;51.436;-2.518;2023-02-15T17:45:19;5.80;;;2.00;;
48859;SDS011;34679;51.436;-2.518;2023-02-15T17:47:46;8.15;;;3.17;;
48859;SDS011;34679;51.436;-2.518;2023-02-15T17:50:23;6.47;;;2.08;;
48859;SDS011;34679;51.436;-2.518;2023-02-15T17:52:52;5.00;;;2.15;;
48859;SDS011;34679;51.436;-2.518;2023-02-15T17:55:21;5.03;;;2.22;;
48859;SDS011;34679;51.436;-2.518;2023-02-15T17:58:00;6.93;;;2.35;;
48859;SDS011;34679;51.436;-2.518;2023-02-15T18:00:28;7.40;;;2.25;;
48859;SDS011;34679;51.436;-2.518;2023-02-15T18:03:17;9.63;;;2.28;;
48859;SDS011;34679;51.436;-2.518;2023-02-15T18:06:01;4.53;;;2.22;;
48859;SDS011;34679;51.436;-2.518;2023-02-15T18:08:46;5.35;;;2.72;;
48859;SDS011;34679;51.436;-2.518;2023-02-15T18:11:30;26.27;;;3.97;;
48859;SDS011;34679;51.436;-2.518;2023-02-15T18:14:00;9.15;;;2.97;;
48859;SDS011;34679;51.436;-2.518;2023-02-15T18:16:27;8.05;;;2.65;;
48859;SDS011;34679;51.436;-2.518;2023-02-15T18:18:55;8.32;;;2.28;;
48859;SDS011;34679;51.436;-2.518;2023-02-15T18:21:22;6.40;;;2.80;;
48859;SDS011;34679;51.436;-2.518;2023-02-15T18:23:49;12.52;;;2.60;;
48859;SDS011;34679;51.436;-2.518;2023-02-15T18:26:21;8.07;;;2.53;;